首页
METAR-TAF:

METAR-TAF

机场 :

塔什干, 乌兹别克斯坦

塔什干国际机场

纬度: 41-16N, 经度: 069-16E, 海拔: 489米

当前天气观测

该预报发布于21分钟前的03:00 UTC
风速8节,风向东转东北
温度 6°C
湿度 45%
气压 1020 hPa
能见度10公里或以上
1500米以下无云,无积雨云

METAR: UTTT 200300Z 06008KT CAVOK 06/M05 Q1020 R08R/CLRD70 NOSIG

时间: 08:21 (03:21 UTC)

预报

该预报发布于4小时和21分钟前的23:00 UTC
预报有效从20日的 00点(UTC)到 20日的 24点(UTC)
风速10节,风向
能見度: 7000

TAF: UTTT 192300Z 2000/2024 08010KT 7000 NSC

超过4000个机场的气象观测和天气预报(METAR&TAF报告)。

可查询的气象台以黄色和红色小点在地图上表示。

将鼠标移到小点上方,可查看气象台名称。

然后点击查看天气观测和预报。

如需切换地图:点击带黑十字的绿色按钮放大地图;点击带横线的绿色按钮缩小地图;或者点击绿色箭头查看邻近地区的地图。


METAR-TAF: